createdAt,value
2023-01-02T00:00:00.795Z,15.60
2023-01-02T00:01:05.423Z,16.40
2023-01-02T00:02:10.184Z,18.70
2023-01-02T00:03:13.416Z,17.20
2023-01-02T00:04:16.730Z,17.50
2023-01-02T00:05:19.829Z,16.90
2023-01-02T00:06:23.654Z,16.30
2023-01-02T00:07:26.810Z,18.90
2023-01-02T00:08:29.805Z,23.80
2023-01-02T00:09:33.646Z,19.80
2023-01-02T00:10:36.699Z,19.30
2023-01-02T00:11:39.868Z,16.70
2023-01-02T00:12:42.983Z,16.60
2023-01-02T00:13:46.069Z,19.60
2023-01-02T00:14:49.532Z,17.80
2023-01-02T00:15:52.488Z,15.20
2023-01-02T00:16:55.527Z,17.70
2023-01-02T00:17:58.464Z,15.30
2023-01-02T00:19:01.698Z,17.50
2023-01-02T00:20:05.887Z,20.30
2023-01-02T00:21:09.471Z,19.60
2023-01-02T00:22:12.571Z,19.10
2023-01-02T00:23:15.686Z,18.40
2023-01-02T00:24:18.840Z,15.30
2023-01-02T00:25:22.220Z,18.30
2023-01-02T00:26:25.293Z,16.90
2023-01-02T00:27:29.963Z,16.80
2023-01-02T00:28:33.789Z,15.60
2023-01-02T00:29:36.944Z,12.70
2023-01-02T00:30:40.182Z,14.20
2023-01-02T00:31:43.764Z,14.10
2023-01-02T00:32:46.773Z,15.50
2023-01-02T00:33:49.748Z,11.00
2023-01-02T00:34:53.847Z,15.80
2023-01-02T00:35:57.050Z,15.40
2023-01-02T00:37:00.111Z,16.00
2023-01-02T00:38:04.503Z,13.90
2023-01-02T00:39:07.456Z,11.60
2023-01-02T00:40:14.127Z,11.80
2023-01-02T00:41:17.513Z,14.70
2023-01-02T00:42:21.442Z,15.80
2023-01-02T00:43:24.835Z,14.90
2023-01-02T00:44:27.926Z,12.80
2023-01-02T00:45:30.945Z,13.00
2023-01-02T00:46:34.395Z,13.50
2023-01-02T00:47:37.562Z,13.60
2023-01-02T00:48:40.582Z,12.50
2023-01-02T00:49:43.644Z,12.90
2023-01-02T00:50:46.769Z,10.50
2023-01-02T00:51:50.241Z,12.30
2023-01-02T00:52:53.582Z,12.80
2023-01-02T00:53:56.764Z,10.40
2023-01-02T00:54:59.773Z,13.30
2023-01-02T00:56:02.861Z,11.20
2023-01-02T00:57:05.991Z,15.60
2023-01-02T00:58:08.900Z,12.30
2023-01-02T00:59:11.914Z,12.40
2023-01-02T01:00:21.671Z,13.10
2023-01-02T01:01:28.048Z,9.00
2023-01-02T01:02:31.867Z,10.80
2023-01-02T01:03:35.251Z,14.30
2023-01-02T01:04:38.350Z,13.80
2023-01-02T01:05:41.389Z,13.90
2023-01-02T01:06:44.447Z,14.20
2023-01-02T01:07:47.627Z,12.60
2023-01-02T01:08:50.660Z,14.80
2023-01-02T01:09:53.623Z,12.90
2023-01-02T01:10:56.664Z,13.60
2023-01-02T01:12:02.296Z,14.30
2023-01-02T01:13:08.647Z,13.90
2023-01-02T01:14:11.666Z,13.20
2023-01-02T01:15:18.407Z,16.30
2023-01-02T01:16:21.543Z,16.90
2023-01-02T01:17:24.545Z,12.50
2023-01-02T01:18:27.959Z,14.50
2023-01-02T01:19:32.274Z,15.30
2023-01-02T01:20:38.827Z,13.20
2023-01-02T01:21:41.961Z,11.80
2023-01-02T01:22:46.270Z,12.40
2023-01-02T01:23:54.925Z,15.80
2023-01-02T01:24:58.193Z,13.90
2023-01-02T01:26:10.310Z,16.10
2023-01-02T01:27:15.129Z,18.80
2023-01-02T01:28:18.212Z,10.80
2023-01-02T01:29:21.435Z,10.80
2023-01-02T01:30:24.438Z,16.00
2023-01-02T01:31:27.609Z,14.40
2023-01-02T01:32:30.697Z,10.30
2023-01-02T01:33:34.140Z,11.70
2023-01-02T01:34:37.383Z,11.20
2023-01-02T01:35:40.344Z,10.80
2023-01-02T01:36:44.339Z,12.50
2023-01-02T01:37:51.022Z,9.20
2023-01-02T01:38:54.153Z,11.20
2023-01-02T01:39:57.719Z,14.00
2023-01-02T01:41:01.752Z,10.40
2023-01-02T01:42:05.114Z,11.30
2023-01-02T01:43:14.956Z,9.70
2023-01-02T01:44:39.811Z,13.40
2023-01-02T01:45:52.516Z,9.60
2023-01-02T01:46:55.668Z,7.50
2023-01-02T01:48:00.990Z,9.20
2023-01-02T01:49:14.728Z,10.80
2023-01-02T01:50:25.928Z,8.10
2023-01-02T01:51:32.002Z,11.40
2023-01-02T01:52:40.178Z,9.90
2023-01-02T01:53:46.763Z,11.90
2023-01-02T01:54:59.565Z,10.30
2023-01-02T01:56:06.257Z,10.50
2023-01-02T01:57:33.546Z,9.70
2023-01-02T01:58:45.146Z,8.60
2023-01-02T01:59:49.834Z,10.90
2023-01-02T02:00:53.289Z,9.60
2023-01-02T02:01:58.093Z,9.60
2023-01-02T02:03:06.977Z,9.70
2023-01-02T02:04:11.581Z,10.60
2023-01-02T02:05:19.335Z,7.20
2023-01-02T02:06:22.374Z,11.20
2023-01-02T02:07:25.814Z,12.40
2023-01-02T02:08:34.443Z,10.60
2023-01-02T02:09:41.249Z,9.40
2023-01-02T02:10:47.344Z,10.80
2023-01-02T02:11:51.752Z,10.70
2023-01-02T02:12:54.677Z,9.30
2023-01-02T02:14:00.075Z,11.00
2023-01-02T02:15:04.085Z,8.60
2023-01-02T02:16:19.095Z,11.30
2023-01-02T02:17:55.468Z,9.70
2023-01-02T02:19:15.348Z,7.70
2023-01-02T02:20:58.608Z,9.90
2023-01-02T02:22:41.568Z,8.90
2023-01-02T02:23:59.528Z,7.60
2023-01-02T02:25:31.923Z,8.80
2023-01-02T02:26:48.050Z,6.60
2023-01-02T02:28:09.271Z,10.30
2023-01-02T02:29:49.418Z,7.20
2023-01-02T02:33:04.671Z,7.40
2023-01-02T02:34:25.280Z,6.60
2023-01-02T02:35:56.029Z,7.70
2023-01-02T02:37:13.641Z,7.30
2023-01-02T02:38:25.511Z,7.50
2023-01-02T02:39:43.869Z,5.80
2023-01-02T02:41:29.281Z,7.50
2023-01-02T02:43:15.683Z,8.30
2023-01-02T02:44:39.183Z,7.50
2023-01-02T02:46:20.460Z,8.70
2023-01-02T02:47:29.208Z,5.80
2023-01-02T02:48:41.665Z,7.90
2023-01-02T02:50:07.059Z,9.40
2023-01-02T02:51:24.909Z,7.50
2023-01-02T02:52:43.812Z,13.50
2023-01-02T02:54:03.537Z,7.00
2023-01-02T02:55:41.555Z,9.00
2023-01-02T02:56:47.372Z,9.40
2023-01-02T02:57:53.178Z,8.50
2023-01-02T02:58:56.558Z,7.70
2023-01-02T03:00:00.105Z,9.00
2023-01-02T03:01:08.691Z,7.50
2023-01-02T03:02:16.927Z,6.60
2023-01-02T03:03:22.970Z,9.70
2023-01-02T03:04:26.072Z,9.40
2023-01-02T03:05:37.428Z,8.00
2023-01-02T03:07:11.582Z,7.40
2023-01-02T03:08:33.003Z,8.30
2023-01-02T03:09:50.168Z,8.60
2023-01-02T03:11:00.013Z,8.70
2023-01-02T03:12:02.924Z,8.70
2023-01-02T03:13:08.828Z,8.50
2023-01-02T03:14:29.333Z,5.20
2023-01-02T03:15:58.599Z,8.30
2023-01-02T03:17:10.366Z,6.00
2023-01-02T03:18:25.457Z,6.20
2023-01-02T03:19:49.843Z,8.90
2023-01-02T03:21:02.808Z,9.20
2023-01-02T03:22:13.583Z,7.80
2023-01-02T03:23:22.027Z,7.10
2023-01-02T03:24:26.045Z,6.70
2023-01-02T03:25:31.973Z,7.30
2023-01-02T03:26:39.577Z,5.80
2023-01-02T03:27:45.538Z,7.20
2023-01-02T03:28:56.313Z,5.20
2023-01-02T03:30:07.958Z,7.30
2023-01-02T03:31:18.976Z,5.40
2023-01-02T03:32:27.930Z,3.90
2023-01-02T03:33:34.706Z,7.60
2023-01-02T03:34:40.863Z,6.10
2023-01-02T03:35:50.917Z,6.50
2023-01-02T03:37:01.076Z,8.50
2023-01-02T03:38:09.124Z,5.70
2023-01-02T03:39:18.874Z,7.40
2023-01-02T03:40:35.352Z,7.20
2023-01-02T03:41:43.480Z,9.70
2023-01-02T03:42:55.407Z,6.70
2023-01-02T03:44:01.380Z,7.80
2023-01-02T03:45:09.617Z,7.20
2023-01-02T03:46:19.297Z,6.60
2023-01-02T03:47:37.455Z,10.50
2023-01-02T03:48:56.470Z,6.50
2023-01-02T03:50:03.891Z,10.40
2023-01-02T03:51:07.792Z,7.20
2023-01-02T03:52:11.047Z,5.70
2023-01-02T03:53:14.266Z,6.70
2023-01-02T03:54:18.996Z,7.70
2023-01-02T03:55:25.736Z,6.50
2023-01-02T03:56:43.643Z,7.30
2023-01-02T03:58:00.512Z,7.30
2023-01-02T03:59:09.172Z,4.80
2023-01-02T04:00:16.489Z,6.50
2023-01-02T04:01:40.872Z,6.90
2023-01-02T04:03:06.261Z,8.20
2023-01-02T04:04:19.080Z,7.80
2023-01-02T04:05:30.379Z,7.20
2023-01-02T04:06:39.252Z,7.90
2023-01-02T04:07:58.516Z,6.20
2023-01-02T04:09:12.469Z,5.70
2023-01-02T04:10:16.313Z,7.80
2023-01-02T04:11:21.559Z,8.90
2023-01-02T04:12:26.789Z,8.60
2023-01-02T04:13:37.648Z,6.40
2023-01-02T04:14:46.339Z,7.70
2023-01-02T04:15:51.155Z,6.10
2023-01-02T04:16:56.805Z,4.90
2023-01-02T04:18:05.224Z,5.30
2023-01-02T04:19:24.377Z,5.90
2023-01-02T04:20:31.994Z,8.40
2023-01-02T04:21:39.352Z,6.00
2023-01-02T04:22:57.707Z,6.90
2023-01-02T04:24:10.171Z,7.90
2023-01-02T04:25:15.862Z,7.60
2023-01-02T04:26:24.955Z,8.40
2023-01-02T04:27:34.987Z,6.50
2023-01-02T04:28:38.664Z,8.60
2023-01-02T04:29:42.068Z,7.60
2023-01-02T04:30:51.238Z,7.80
2023-01-02T04:32:07.657Z,6.50
2023-01-02T04:33:12.272Z,9.10
2023-01-02T04:34:17.477Z,8.50
2023-01-02T04:35:23.424Z,8.60
2023-01-02T04:36:26.577Z,8.60
2023-01-02T04:37:35.881Z,10.20
2023-01-02T04:38:39.401Z,6.70
2023-01-02T04:39:42.677Z,6.30
2023-01-02T04:40:45.889Z,10.30
2023-01-02T04:41:48.969Z,9.30
2023-01-02T04:42:52.230Z,9.00
2023-01-02T04:43:59.053Z,7.70
2023-01-02T04:45:02.328Z,9.10
2023-01-02T04:46:05.646Z,6.90
2023-01-02T04:47:09.594Z,7.70
2023-01-02T04:48:12.575Z,5.70
2023-01-02T04:49:15.676Z,9.60
2023-01-02T04:50:18.998Z,8.70
2023-01-02T04:51:23.073Z,6.60
2023-01-02T04:52:26.083Z,8.70
2023-01-02T04:53:29.098Z,7.90
2023-01-02T04:54:32.068Z,8.40
2023-01-02T04:55:35.192Z,8.00
2023-01-02T04:56:38.394Z,7.90
2023-01-02T04:57:41.465Z,9.40
2023-01-02T04:58:45.943Z,6.50
2023-01-02T04:59:48.985Z,8.10
2023-01-02T05:00:52.118Z,7.40
2023-01-02T05:01:55.512Z,5.70
2023-01-02T05:02:58.774Z,9.60
2023-01-02T05:04:02.024Z,7.30
2023-01-02T05:05:06.768Z,7.10
2023-01-02T05:06:10.359Z,7.80
2023-01-02T05:07:13.493Z,9.70
2023-01-02T05:08:16.828Z,6.90
2023-01-02T05:09:19.899Z,7.20
2023-01-02T05:10:22.844Z,12.90
2023-01-02T05:11:26.109Z,6.10
2023-01-02T05:12:29.173Z,11.50
2023-01-02T05:13:32.149Z,9.40
2023-01-02T05:14:35.277Z,9.60
2023-01-02T05:15:38.366Z,10.60
2023-01-02T05:16:41.674Z,7.60
2023-01-02T05:17:44.815Z,10.40
2023-01-02T05:18:47.841Z,11.70
2023-01-02T05:19:50.795Z,10.80
2023-01-02T05:20:53.845Z,9.90
2023-01-02T05:22:15.969Z,10.50
2023-01-02T05:23:37.593Z,9.30
2023-01-02T05:24:40.622Z,13.10
2023-01-02T05:25:43.580Z,11.50
2023-01-02T05:26:46.556Z,8.90
2023-01-02T05:27:53.343Z,9.40
2023-01-02T05:28:56.753Z,9.50
2023-01-02T05:29:59.705Z,11.90
2023-01-02T05:31:02.738Z,9.40
2023-01-02T05:32:05.904Z,10.70
2023-01-02T05:33:09.024Z,10.20
2023-01-02T05:34:16.110Z,11.30
2023-01-02T05:35:19.103Z,10.50
2023-01-02T05:36:24.051Z,11.60
2023-01-02T05:37:27.274Z,9.10
2023-01-02T05:38:32.279Z,12.10
2023-01-02T05:39:35.231Z,9.80
2023-01-02T05:40:38.171Z,11.90
2023-01-02T05:41:41.929Z,10.60
2023-01-02T05:42:45.032Z,11.60
2023-01-02T05:43:48.790Z,12.70
2023-01-02T05:44:52.408Z,12.80
2023-01-02T05:45:55.320Z,11.40
2023-01-02T05:46:58.352Z,12.30
2023-01-02T05:48:01.627Z,15.20
2023-01-02T05:49:06.265Z,12.50
2023-01-02T05:50:09.664Z,13.20
2023-01-02T05:51:16.484Z,10.70
2023-01-02T05:52:19.484Z,12.70
2023-01-02T05:53:23.144Z,10.20
2023-01-02T05:54:26.222Z,15.20
2023-01-02T05:55:29.243Z,11.70
2023-01-02T05:56:32.316Z,13.50
2023-01-02T05:57:35.599Z,15.40
2023-01-02T05:58:40.409Z,10.20
2023-01-02T05:59:43.596Z,11.20
2023-01-02T06:00:46.639Z,12.70
2023-01-02T06:01:49.942Z,13.70
2023-01-02T06:02:53.327Z,12.50
2023-01-02T06:03:58.547Z,11.70
2023-01-02T06:05:01.636Z,11.30
2023-01-02T06:06:10.439Z,10.60
2023-01-02T06:07:13.505Z,12.50
2023-01-02T06:08:17.098Z,13.40
2023-01-02T06:09:20.437Z,15.30
2023-01-02T06:10:23.596Z,10.30
2023-01-02T06:11:27.672Z,11.90
2023-01-02T06:12:30.662Z,15.10
2023-01-02T06:13:35.794Z,13.70
2023-01-02T06:14:38.878Z,14.60
2023-01-02T06:15:42.133Z,10.90
2023-01-02T06:16:45.253Z,12.20
2023-01-02T06:17:48.329Z,9.80
2023-01-02T06:18:52.128Z,10.70
2023-01-02T06:19:55.471Z,10.60
2023-01-02T06:21:02.901Z,12.60
2023-01-02T06:22:05.997Z,12.10
2023-01-02T06:23:09.021Z,12.80
2023-01-02T06:24:12.316Z,13.50
2023-01-02T06:25:15.689Z,11.70
2023-01-02T06:26:20.962Z,12.20
2023-01-02T06:27:24.022Z,10.80
2023-01-02T06:28:28.504Z,12.40
2023-01-02T06:29:31.821Z,12.70
2023-01-02T06:30:35.027Z,16.60
2023-01-02T06:31:39.991Z,15.10
2023-01-02T06:32:43.598Z,14.70
2023-01-02T06:33:46.848Z,13.80
2023-01-02T06:34:50.041Z,12.10
2023-01-02T06:36:01.092Z,15.10
2023-01-02T06:37:09.522Z,13.00
2023-01-02T06:38:13.211Z,15.10
2023-01-02T06:39:16.317Z,14.30
2023-01-02T06:40:19.955Z,13.20
2023-01-02T06:41:23.359Z,12.40
2023-01-02T06:42:26.606Z,13.20
2023-01-02T06:43:31.584Z,12.50
2023-01-02T06:44:34.878Z,14.80
2023-01-02T06:45:37.807Z,11.80
2023-01-02T06:46:40.891Z,15.30
2023-01-02T06:47:44.087Z,13.70
2023-01-02T06:48:47.915Z,14.30
2023-01-02T06:49:51.016Z,13.60
2023-01-02T06:50:54.770Z,11.90
2023-01-02T06:51:57.798Z,15.30
2023-01-02T06:53:00.959Z,13.40
2023-01-02T06:54:04.091Z,12.90
2023-01-02T06:55:07.568Z,16.40
2023-01-02T06:56:11.842Z,12.40
2023-01-02T06:57:16.025Z,13.60
2023-01-02T06:58:20.521Z,15.70
2023-01-02T06:59:23.959Z,14.50
2023-01-02T07:00:28.399Z,13.40
2023-01-02T07:01:31.492Z,15.40
2023-01-02T07:02:34.612Z,14.70
2023-01-02T07:03:38.195Z,13.40
2023-01-02T07:04:41.793Z,15.70
2023-01-02T07:05:45.458Z,16.70
2023-01-02T07:06:48.558Z,15.50
2023-01-02T07:07:51.533Z,17.20
2023-01-02T07:08:54.682Z,15.70
2023-01-02T07:09:57.771Z,13.80
2023-01-02T07:11:09.027Z,16.80
2023-01-02T07:12:14.623Z,16.00
2023-01-02T07:13:17.628Z,16.20
2023-01-02T07:14:21.115Z,14.50
2023-01-02T07:15:24.243Z,14.40
2023-01-02T07:16:27.510Z,15.00
2023-01-02T07:17:31.807Z,15.70
2023-01-02T07:18:35.984Z,16.40
2023-01-02T07:19:39.112Z,17.00
2023-01-02T07:20:42.084Z,13.40
2023-01-02T07:21:45.107Z,19.70
2023-01-02T07:22:52.552Z,18.60
2023-01-02T07:23:55.818Z,17.70
2023-01-02T07:24:59.167Z,15.60
2023-01-02T07:26:04.074Z,16.90
2023-01-02T07:27:07.229Z,15.90
2023-01-02T07:28:10.245Z,17.60
2023-01-02T07:29:13.371Z,16.40
2023-01-02T07:30:16.770Z,17.60
2023-01-02T07:31:21.540Z,20.50
2023-01-02T07:32:27.496Z,16.10
2023-01-02T07:33:32.233Z,22.30
2023-01-02T07:34:35.332Z,18.90
2023-01-02T07:35:38.613Z,18.30
2023-01-02T07:36:41.712Z,20.70
2023-01-02T07:37:44.906Z,18.90
2023-01-02T07:38:55.335Z,22.40
2023-01-02T07:39:58.730Z,18.70
2023-01-02T07:41:01.856Z,21.70
2023-01-02T07:42:05.157Z,18.90
2023-01-02T07:43:08.155Z,18.60
2023-01-02T07:44:14.041Z,17.70
2023-01-02T07:45:17.158Z,22.60
2023-01-02T07:46:20.520Z,20.30
2023-01-02T07:47:24.510Z,20.50
2023-01-02T07:48:29.428Z,20.40
2023-01-02T07:49:32.468Z,18.10
2023-01-02T07:50:35.565Z,19.90
2023-01-02T07:51:38.741Z,23.80
2023-01-02T07:52:44.757Z,27.50
2023-01-02T07:53:48.036Z,20.80
2023-01-02T07:54:51.101Z,26.40
2023-01-02T07:55:55.536Z,20.90
2023-01-02T07:56:58.725Z,21.60
2023-01-02T07:58:01.989Z,22.60
2023-01-02T07:59:05.327Z,24.40
2023-01-02T08:00:09.107Z,25.60
2023-01-02T08:01:15.578Z,25.10
2023-01-02T08:02:19.088Z,26.60
2023-01-02T08:03:23.103Z,28.00
2023-01-02T08:04:26.338Z,28.60
2023-01-02T08:05:29.407Z,24.90
2023-01-02T08:06:33.749Z,31.20
2023-01-02T08:07:44.447Z,26.30
2023-01-02T08:08:48.077Z,25.70
2023-01-02T08:09:51.242Z,30.60
2023-01-02T08:10:54.290Z,27.70
2023-01-02T08:12:04.778Z,33.50
2023-01-02T08:13:08.299Z,29.20
2023-01-02T08:14:11.254Z,29.90
2023-01-02T08:15:14.265Z,30.10
2023-01-02T08:16:21.744Z,29.10
2023-01-02T08:17:24.893Z,32.00
2023-01-02T08:18:28.151Z,32.60
2023-01-02T08:19:32.256Z,27.80
2023-01-02T08:20:35.586Z,29.70
2023-01-02T08:21:38.597Z,33.00
2023-01-02T08:22:41.891Z,30.20
2023-01-02T08:23:45.290Z,29.80
2023-01-02T08:24:48.715Z,32.20
2023-01-02T08:25:57.335Z,29.80
2023-01-02T08:27:00.761Z,36.70
2023-01-02T08:28:04.029Z,31.10
2023-01-02T08:29:09.239Z,31.90
2023-01-02T08:30:12.566Z,31.70
2023-01-02T08:31:18.836Z,31.70
2023-01-02T08:32:21.933Z,32.30
2023-01-02T08:33:24.937Z,35.70
2023-01-02T08:34:28.058Z,31.50
2023-01-02T08:35:38.404Z,30.80
2023-01-02T08:36:42.605Z,35.00
2023-01-02T08:37:50.443Z,32.90
2023-01-02T08:38:54.617Z,38.00
2023-01-02T08:40:00.608Z,30.90
2023-01-02T08:41:05.769Z,33.70
2023-01-02T08:42:09.070Z,37.60
2023-01-02T08:43:13.470Z,32.90
2023-01-02T08:44:16.728Z,39.60
2023-01-02T08:45:19.844Z,38.20
2023-01-02T08:46:22.847Z,34.50
2023-01-02T08:47:25.932Z,34.40
2023-01-02T08:48:28.923Z,37.80
2023-01-02T08:49:32.392Z,35.00
2023-01-02T08:50:35.612Z,37.50
2023-01-02T08:51:38.631Z,33.60
2023-01-02T08:52:41.692Z,36.40
2023-01-02T08:53:44.652Z,33.50
2023-01-02T08:54:47.948Z,35.20
2023-01-02T08:55:51.104Z,33.70
2023-01-02T08:56:54.198Z,32.50
2023-01-02T08:57:57.332Z,36.20
2023-01-02T08:59:06.533Z,34.20
2023-01-02T09:00:12.411Z,31.70
2023-01-02T09:01:15.639Z,34.80
2023-01-02T09:02:18.953Z,30.70
2023-01-02T09:03:22.483Z,35.50
2023-01-02T09:04:25.522Z,34.50
2023-01-02T09:05:31.117Z,35.70
2023-01-02T09:06:36.127Z,35.30
2023-01-02T09:07:39.206Z,32.20
2023-01-02T09:08:42.234Z,36.90
2023-01-02T09:09:45.301Z,33.90
2023-01-02T09:10:51.529Z,35.50
2023-01-02T09:11:54.811Z,32.30
2023-01-02T09:12:59.201Z,35.40
2023-01-02T09:14:04.579Z,35.80
2023-01-02T09:15:09.385Z,35.30
2023-01-02T09:16:12.751Z,31.90
2023-01-02T09:17:16.285Z,32.60
2023-01-02T09:18:22.991Z,33.10
2023-01-02T09:19:29.740Z,29.60
2023-01-02T09:20:32.764Z,33.30
2023-01-02T09:21:36.068Z,32.50
2023-01-02T09:22:40.685Z,34.90
2023-01-02T09:23:43.887Z,33.50
2023-01-02T09:24:48.033Z,29.40
2023-01-02T09:25:51.446Z,30.90
2023-01-02T09:27:18.377Z,30.90
2023-01-02T09:29:03.557Z,33.90
2023-01-02T09:31:48.974Z,32.40
2023-01-02T09:32:52.501Z,33.80
2023-01-02T09:34:02.929Z,30.90
2023-01-02T09:35:06.571Z,30.60
2023-01-02T09:36:12.603Z,32.30
2023-01-02T09:37:17.567Z,32.10
2023-01-02T09:38:20.788Z,36.10
2023-01-02T09:39:30.303Z,34.70
2023-01-02T09:40:38.974Z,31.90
2023-01-02T09:41:47.143Z,30.10
2023-01-02T09:42:53.644Z,32.80
2023-01-02T09:44:01.014Z,34.10
2023-01-02T09:45:09.295Z,32.30
2023-01-02T09:46:51.162Z,32.90
2023-01-02T09:47:58.443Z,30.70
2023-01-02T09:49:02.848Z,34.10
2023-01-02T09:50:25.215Z,34.50
2023-01-02T09:51:28.739Z,34.90
2023-01-02T09:52:45.108Z,33.20
2023-01-02T09:53:48.357Z,33.90
2023-01-02T09:54:53.134Z,33.90
2023-01-02T09:56:17.734Z,32.90
2023-01-02T09:57:29.852Z,31.20
2023-01-02T09:58:38.723Z,39.10
2023-01-02T10:00:10.951Z,30.40
2023-01-02T10:01:26.938Z,28.20
2023-01-02T10:02:54.657Z,35.10
2023-01-02T10:04:19.825Z,33.00
2023-01-02T10:06:01.199Z,36.10
2023-01-02T10:07:23.251Z,34.60
2023-01-02T10:08:59.433Z,30.00
2023-01-02T10:10:46.767Z,28.00
2023-01-02T10:12:17.957Z,31.90
2023-01-02T10:14:08.916Z,32.20
2023-01-02T10:15:05.616Z,31.30
2023-01-02T10:16:17.617Z,31.80
2023-01-02T10:17:22.164Z,29.80
2023-01-02T10:18:41.470Z,32.20
2023-01-02T10:20:03.533Z,32.90
2023-01-02T10:21:21.134Z,31.70
2023-01-02T10:22:42.258Z,30.30
2023-01-02T10:23:55.074Z,32.00
2023-01-02T10:25:08.461Z,28.20
2023-01-02T10:26:28.285Z,30.00
2023-01-02T10:27:38.307Z,28.50
2023-01-02T10:28:46.988Z,30.00
2023-01-02T10:30:17.173Z,30.80
2023-01-02T10:31:48.638Z,30.50
2023-01-02T10:33:19.052Z,27.50
2023-01-02T10:34:26.574Z,27.10
2023-01-02T10:35:39.242Z,30.00
2023-01-02T10:36:43.955Z,26.60
2023-01-02T10:37:47.035Z,27.80
2023-01-02T10:38:50.997Z,28.60
2023-01-02T10:39:54.180Z,27.90
2023-01-02T10:40:57.395Z,26.30
2023-01-02T10:42:00.786Z,24.40
2023-01-02T10:43:04.560Z,27.20
2023-01-02T10:44:19.954Z,25.50
2023-01-02T10:45:24.175Z,26.50
2023-01-02T10:46:39.005Z,27.50
2023-01-02T10:47:42.073Z,26.80
2023-01-02T10:48:51.833Z,23.70
2023-01-02T10:49:57.490Z,25.40
2023-01-02T10:51:11.084Z,25.80
2023-01-02T10:52:41.728Z,33.40
2023-01-02T10:54:04.606Z,23.70
2023-01-02T10:55:08.430Z,26.60
2023-01-02T10:56:20.569Z,25.70
2023-01-02T10:57:46.014Z,24.70
2023-01-02T10:58:53.284Z,26.60
2023-01-02T11:00:00.054Z,24.70
2023-01-02T11:01:07.007Z,26.60
2023-01-02T11:02:30.399Z,25.10
2023-01-02T11:03:34.437Z,24.90
2023-01-02T11:04:44.029Z,24.30
2023-01-02T11:05:50.899Z,24.20
2023-01-02T11:07:00.682Z,23.20
2023-01-02T11:08:13.673Z,20.80
2023-01-02T11:09:29.542Z,20.90
2023-01-02T11:10:37.408Z,25.50
2023-01-02T11:11:52.863Z,20.70
2023-01-02T11:12:56.453Z,23.50
2023-01-02T11:14:08.544Z,22.30
2023-01-02T11:15:13.720Z,22.80
2023-01-02T11:16:18.948Z,19.10
2023-01-02T11:17:24.840Z,19.90
2023-01-02T11:18:33.586Z,22.90
2023-01-02T11:19:42.695Z,21.60
2023-01-02T11:20:52.232Z,19.60
2023-01-02T11:21:56.632Z,20.10
2023-01-02T11:23:03.142Z,19.60
2023-01-02T11:24:14.458Z,21.40
2023-01-02T11:25:24.597Z,20.00
2023-01-02T11:26:30.687Z,22.80
2023-01-02T11:27:37.112Z,22.50
2023-01-02T11:28:41.476Z,21.80
2023-01-02T11:29:47.990Z,19.50
2023-01-02T11:30:54.456Z,17.30
2023-01-02T11:32:01.791Z,21.20
2023-01-02T11:33:14.086Z,19.60
2023-01-02T11:34:24.572Z,18.70
2023-01-02T11:35:38.882Z,18.90
2023-01-02T11:36:48.366Z,19.90
2023-01-02T11:37:52.845Z,18.40
2023-01-02T11:38:59.420Z,23.60
2023-01-02T11:40:07.031Z,19.40
2023-01-02T11:41:46.037Z,19.70
2023-01-02T11:43:11.531Z,17.90
2023-01-02T11:44:23.510Z,22.50
2023-01-02T11:45:27.312Z,20.40
2023-01-02T11:46:38.253Z,18.70
2023-01-02T11:47:56.312Z,22.60
2023-01-02T11:49:18.209Z,20.40
2023-01-02T11:50:26.330Z,19.80
2023-01-02T11:51:33.354Z,17.40
2023-01-02T11:53:02.087Z,21.10
2023-01-02T11:54:14.714Z,18.40
2023-01-02T11:55:43.831Z,18.30
2023-01-02T11:56:48.096Z,19.60
2023-01-02T11:58:06.092Z,20.80
2023-01-02T11:59:31.131Z,21.00
2023-01-02T12:00:38.863Z,18.10
2023-01-02T12:02:20.902Z,17.60
2023-01-02T12:03:27.226Z,17.40
2023-01-02T12:04:33.670Z,17.10
2023-01-02T12:06:01.555Z,18.20
2023-01-02T12:07:23.416Z,17.90
2023-01-02T12:09:04.038Z,20.80
2023-01-02T12:10:20.771Z,15.40
2023-01-02T12:12:13.572Z,16.30
2023-01-02T12:13:31.649Z,17.80
2023-01-02T12:14:54.922Z,19.10
2023-01-02T12:16:20.666Z,17.30
2023-01-02T12:17:42.129Z,16.10
2023-01-02T12:18:52.317Z,14.10
2023-01-02T12:21:24.496Z,17.30
2023-01-02T12:22:49.578Z,14.20
2023-01-02T12:23:58.819Z,20.40
2023-01-02T12:25:37.286Z,14.60
2023-01-02T12:26:46.619Z,15.20
2023-01-02T12:28:05.187Z,13.80
2023-01-02T12:29:48.689Z,14.80
2023-01-02T12:31:13.684Z,13.50
2023-01-02T12:32:39.380Z,17.90
2023-01-02T12:33:48.085Z,14.40
2023-01-02T12:35:13.121Z,10.20
2023-01-02T12:36:42.831Z,13.90
2023-01-02T12:37:54.329Z,15.40
2023-01-02T12:39:06.268Z,14.10
2023-01-02T12:40:43.894Z,14.50
2023-01-02T12:42:08.101Z,14.10
2023-01-02T12:43:11.142Z,14.80
2023-01-02T12:44:55.729Z,13.10
2023-01-02T12:46:26.969Z,16.60
2023-01-02T12:47:51.088Z,13.60
2023-01-02T12:49:13.363Z,15.60
2023-01-02T12:50:38.295Z,15.20
2023-01-02T12:51:57.209Z,13.10
2023-01-02T12:53:09.691Z,15.40
2023-01-02T12:54:51.030Z,12.40
2023-01-02T12:56:07.421Z,14.70
2023-01-02T12:57:32.088Z,13.50
2023-01-02T12:59:29.711Z,12.60
2023-01-02T13:01:00.682Z,13.10
2023-01-02T13:02:28.882Z,14.10
2023-01-02T13:03:53.240Z,11.80
2023-01-02T13:05:02.260Z,14.00
2023-01-02T13:06:45.437Z,15.00
2023-01-02T13:07:48.125Z,14.10
2023-01-02T13:09:03.345Z,11.50
2023-01-02T13:10:07.529Z,12.70
2023-01-02T13:11:11.477Z,13.50
2023-01-02T13:12:21.925Z,15.90
2023-01-02T13:14:36.968Z,14.10
2023-01-02T13:15:44.232Z,15.70
2023-01-02T13:16:58.001Z,13.50
2023-01-02T13:18:10.708Z,13.80
2023-01-02T13:19:34.020Z,13.90
2023-01-02T13:20:44.111Z,11.80
2023-01-02T13:21:54.798Z,13.70
2023-01-02T13:23:18.469Z,15.00
2023-01-02T13:24:26.105Z,12.30
2023-01-02T13:25:31.430Z,14.60
2023-01-02T13:26:34.775Z,14.30
2023-01-02T13:27:38.247Z,13.10
2023-01-02T13:28:43.223Z,15.90
2023-01-02T13:29:46.298Z,15.70
2023-01-02T13:31:00.923Z,13.50
2023-01-02T13:32:15.247Z,18.40
2023-01-02T13:33:21.882Z,15.40
2023-01-02T13:34:33.074Z,15.10
2023-01-02T13:35:38.666Z,13.60
2023-01-02T13:36:47.017Z,16.00
2023-01-02T13:37:53.488Z,14.60
2023-01-02T13:39:00.585Z,12.60
2023-01-02T13:40:04.595Z,13.50
2023-01-02T13:41:07.791Z,12.90
2023-01-02T13:42:40.426Z,13.40
2023-01-02T13:43:48.804Z,16.50
2023-01-02T13:44:56.758Z,13.50
2023-01-02T13:46:01.603Z,12.20
2023-01-02T13:47:25.832Z,15.40
2023-01-02T13:48:35.365Z,17.00
2023-01-02T13:49:38.584Z,11.90
2023-01-02T13:50:41.955Z,14.90
2023-01-02T13:51:46.011Z,14.10
2023-01-02T13:53:27.397Z,12.50
2023-01-02T13:54:37.478Z,14.70
2023-01-02T13:55:40.444Z,13.50
2023-01-02T13:57:17.836Z,11.50
2023-01-02T13:58:25.484Z,13.00
2023-01-02T13:59:42.573Z,14.10
2023-01-02T14:00:57.187Z,11.60
2023-01-02T14:02:00.129Z,13.70
2023-01-02T14:03:22.915Z,13.90
2023-01-02T14:04:30.050Z,16.10
2023-01-02T14:05:58.510Z,14.20
2023-01-02T14:07:27.178Z,17.30
2023-01-02T14:09:00.608Z,14.50
2023-01-02T14:10:09.794Z,14.90
2023-01-02T14:11:28.523Z,12.20
2023-01-02T14:12:42.790Z,15.50
2023-01-02T14:13:51.643Z,14.80
2023-01-02T14:14:57.012Z,13.30
2023-01-02T14:16:13.036Z,15.70
2023-01-02T14:17:45.121Z,16.80
2023-01-02T14:19:05.708Z,14.60
2023-01-02T14:21:33.476Z,14.00
2023-01-02T14:22:47.166Z,14.90
2023-01-02T14:24:16.112Z,14.80
2023-01-02T14:25:13.983Z,17.90
2023-01-02T14:26:25.525Z,16.70
2023-01-02T14:27:33.730Z,20.60
2023-01-02T14:28:39.469Z,19.20
2023-01-02T14:29:52.836Z,17.90
2023-01-02T14:30:57.970Z,20.10
2023-01-02T14:32:16.351Z,17.30
2023-01-02T14:33:31.127Z,15.40
2023-01-02T14:34:42.105Z,19.90
2023-01-02T14:35:53.973Z,16.60
2023-01-02T14:37:00.367Z,14.70
2023-01-02T14:38:25.712Z,16.10
2023-01-02T14:39:36.721Z,16.50
2023-01-02T14:40:42.125Z,15.60
2023-01-02T14:42:07.066Z,16.50
2023-01-02T14:43:31.823Z,16.60
2023-01-02T14:44:41.393Z,16.20
2023-01-02T14:45:51.247Z,13.30
2023-01-02T14:46:55.662Z,15.10
2023-01-02T14:48:11.078Z,17.70
2023-01-02T14:49:30.279Z,19.40
2023-01-02T14:50:35.954Z,16.60
2023-01-02T14:51:43.555Z,17.60
2023-01-02T14:52:52.894Z,17.40
2023-01-02T14:54:00.654Z,14.50
2023-01-02T14:55:20.716Z,15.10
2023-01-02T14:56:30.861Z,19.50
2023-01-02T14:57:44.947Z,13.60
2023-01-02T14:58:50.531Z,15.30
2023-01-02T14:59:55.791Z,15.60
2023-01-02T15:01:04.882Z,16.90
2023-01-02T15:02:17.684Z,13.60
2023-01-02T15:03:33.319Z,13.70
2023-01-02T15:05:03.360Z,17.10
2023-01-02T15:06:20.102Z,16.40
2023-01-02T15:07:33.374Z,16.00